sensor_id;sensor_type;location;lat;lon;timestamp;P1;durP1;ratioP1;P2;durP2;ratioP2
4575;SDS011;2300;51.874;8.430;2023-02-15T00:01:41;34.03;;;26.10;;
4575;SDS011;2300;51.874;8.430;2023-02-15T00:04:08;33.23;;;25.93;;
4575;SDS011;2300;51.874;8.430;2023-02-15T00:06:36;32.90;;;25.67;;
4575;SDS011;2300;51.874;8.430;2023-02-15T00:09:03;32.83;;;25.77;;
4575;SDS011;2300;51.874;8.430;2023-02-15T00:11:29;33.63;;;27.73;;
4575;SDS011;2300;51.874;8.430;2023-02-15T00:14:06;33.30;;;26.00;;
4575;SDS011;2300;51.874;8.430;2023-02-15T00:16:33;34.93;;;26.70;;
4575;SDS011;2300;51.874;8.430;2023-02-15T00:19:00;34.77;;;28.60;;
4575;SDS011;2300;51.874;8.430;2023-02-15T00:21:27;38.00;;;27.87;;
4575;SDS011;2300;51.874;8.430;2023-02-15T00:23:56;32.93;;;28.23;;
4575;SDS011;2300;51.874;8.430;2023-02-15T00:26:23;31.93;;;26.30;;
4575;SDS011;2300;51.874;8.430;2023-02-15T00:28:49;32.83;;;26.63;;
4575;SDS011;2300;51.874;8.430;2023-02-15T00:31:16;33.83;;;26.93;;
4575;SDS011;2300;51.874;8.430;2023-02-15T00:33:43;34.23;;;26.57;;
4575;SDS011;2300;51.874;8.430;2023-02-15T00:36:09;33.97;;;27.43;;
4575;SDS011;2300;51.874;8.430;2023-02-15T00:38:36;33.07;;;26.23;;
4575;SDS011;2300;51.874;8.430;2023-02-15T00:41:05;33.93;;;27.87;;
4575;SDS011;2300;51.874;8.430;2023-02-15T00:43:33;32.17;;;26.23;;
4575;SDS011;2300;51.874;8.430;2023-02-15T00:46:00;32.90;;;26.13;;
4575;SDS011;2300;51.874;8.430;2023-02-15T00:48:27;35.47;;;25.97;;
4575;SDS011;2300;51.874;8.430;2023-02-15T00:50:54;37.10;;;25.80;;
4575;SDS011;2300;51.874;8.430;2023-02-15T00:53:22;36.40;;;26.37;;
4575;SDS011;2300;51.874;8.430;2023-02-15T00:55:49;36.93;;;27.07;;
4575;SDS011;2300;51.874;8.430;2023-02-15T00:58:17;33.90;;;25.73;;
4575;SDS011;2300;51.874;8.430;2023-02-15T01:00:44;36.63;;;26.53;;
4575;SDS011;2300;51.874;8.430;2023-02-15T01:03:12;35.87;;;25.67;;
4575;SDS011;2300;51.874;8.430;2023-02-15T01:05:40;35.30;;;25.67;;
4575;SDS011;2300;51.874;8.430;2023-02-15T01:08:07;34.00;;;25.07;;
4575;SDS011;2300;51.874;8.430;2023-02-15T01:10:34;34.27;;;25.47;;
4575;SDS011;2300;51.874;8.430;2023-02-15T01:13:01;35.90;;;28.70;;
4575;SDS011;2300;51.874;8.430;2023-02-15T01:15:29;36.93;;;29.40;;
4575;SDS011;2300;51.874;8.430;2023-02-15T01:17:56;37.03;;;27.70;;
4575;SDS011;2300;51.874;8.430;2023-02-15T01:20:24;38.57;;;28.67;;
4575;SDS011;2300;51.874;8.430;2023-02-15T01:22:52;35.37;;;26.40;;
4575;SDS011;2300;51.874;8.430;2023-02-15T01:25:20;37.27;;;28.30;;
4575;SDS011;2300;51.874;8.430;2023-02-15T01:27:48;35.07;;;28.03;;
4575;SDS011;2300;51.874;8.430;2023-02-15T01:30:15;41.70;;;30.20;;
4575;SDS011;2300;51.874;8.430;2023-02-15T01:32:43;38.20;;;30.50;;
4575;SDS011;2300;51.874;8.430;2023-02-15T01:35:10;39.43;;;29.90;;
4575;SDS011;2300;51.874;8.430;2023-02-15T01:37:37;37.47;;;30.13;;
4575;SDS011;2300;51.874;8.430;2023-02-15T01:40:04;39.97;;;30.27;;
4575;SDS011;2300;51.874;8.430;2023-02-15T01:42:33;36.23;;;27.63;;
4575;SDS011;2300;51.874;8.430;2023-02-15T01:45:00;35.97;;;28.30;;
4575;SDS011;2300;51.874;8.430;2023-02-15T01:47:30;39.17;;;32.43;;
4575;SDS011;2300;51.874;8.430;2023-02-15T01:50:03;38.40;;;29.80;;
4575;SDS011;2300;51.874;8.430;2023-02-15T01:52:35;35.53;;;27.60;;
4575;SDS011;2300;51.874;8.430;2023-02-15T01:55:06;39.70;;;30.07;;
4575;SDS011;2300;51.874;8.430;2023-02-15T01:57:34;41.03;;;29.40;;
4575;SDS011;2300;51.874;8.430;2023-02-15T02:00:02;37.53;;;28.77;;
4575;SDS011;2300;51.874;8.430;2023-02-15T02:02:31;35.17;;;28.57;;
4575;SDS011;2300;51.874;8.430;2023-02-15T02:04:59;36.67;;;28.20;;
4575;SDS011;2300;51.874;8.430;2023-02-15T02:07:33;31.77;;;25.73;;
4575;SDS011;2300;51.874;8.430;2023-02-15T02:10:02;34.67;;;25.30;;
4575;SDS011;2300;51.874;8.430;2023-02-15T02:12:30;35.83;;;26.73;;
4575;SDS011;2300;51.874;8.430;2023-02-15T02:14:57;35.53;;;26.03;;
4575;SDS011;2300;51.874;8.430;2023-02-15T02:17:26;35.50;;;25.47;;
4575;SDS011;2300;51.874;8.430;2023-02-15T02:23:02;34.80;;;25.77;;
4575;SDS011;2300;51.874;8.430;2023-02-15T02:25:48;40.10;;;28.23;;
4575;SDS011;2300;51.874;8.430;2023-02-15T02:28:37;35.20;;;25.73;;
4575;SDS011;2300;51.874;8.430;2023-02-15T02:31:29;37.27;;;27.13;;
4575;SDS011;2300;51.874;8.430;2023-02-15T02:34:09;40.47;;;28.63;;
4575;SDS011;2300;51.874;8.430;2023-02-15T02:36:41;40.33;;;27.63;;
4575;SDS011;2300;51.874;8.430;2023-02-15T02:39:19;40.43;;;28.97;;
4575;SDS011;2300;51.874;8.430;2023-02-15T02:41:55;37.57;;;27.83;;
4575;SDS011;2300;51.874;8.430;2023-02-15T02:44:28;43.47;;;29.23;;
4575;SDS011;2300;51.874;8.430;2023-02-15T02:47:02;38.20;;;27.77;;
4575;SDS011;2300;51.874;8.430;2023-02-15T02:49:36;40.27;;;30.13;;
4575;SDS011;2300;51.874;8.430;2023-02-15T02:52:04;42.50;;;29.20;;
4575;SDS011;2300;51.874;8.430;2023-02-15T02:54:32;42.13;;;28.07;;
4575;SDS011;2300;51.874;8.430;2023-02-15T02:57:01;47.87;;;28.37;;
4575;SDS011;2300;51.874;8.430;2023-02-15T02:59:34;43.07;;;29.53;;
4575;SDS011;2300;51.874;8.430;2023-02-15T03:02:05;43.20;;;30.43;;
4575;SDS011;2300;51.874;8.430;2023-02-15T03:04:39;39.80;;;27.17;;
4575;SDS011;2300;51.874;8.430;2023-02-15T03:07:10;42.07;;;27.57;;
4575;SDS011;2300;51.874;8.430;2023-02-15T03:09:41;40.07;;;27.97;;
4575;SDS011;2300;51.874;8.430;2023-02-15T03:12:13;39.83;;;28.07;;
4575;SDS011;2300;51.874;8.430;2023-02-15T03:14:43;37.50;;;27.73;;
4575;SDS011;2300;51.874;8.430;2023-02-15T03:17:14;39.40;;;27.10;;
4575;SDS011;2300;51.874;8.430;2023-02-15T03:19:44;40.67;;;28.53;;
4575;SDS011;2300;51.874;8.430;2023-02-15T03:22:14;41.00;;;28.83;;
4575;SDS011;2300;51.874;8.430;2023-02-15T03:24:49;44.03;;;30.10;;
4575;SDS011;2300;51.874;8.430;2023-02-15T03:27:22;42.00;;;27.77;;
4575;SDS011;2300;51.874;8.430;2023-02-15T03:29:52;36.93;;;27.53;;
4575;SDS011;2300;51.874;8.430;2023-02-15T03:32:21;42.23;;;30.00;;
4575;SDS011;2300;51.874;8.430;2023-02-15T03:34:50;43.60;;;28.87;;
4575;SDS011;2300;51.874;8.430;2023-02-15T03:37:18;42.37;;;29.80;;
4575;SDS011;2300;51.874;8.430;2023-02-15T03:39:51;41.27;;;26.33;;
4575;SDS011;2300;51.874;8.430;2023-02-15T03:42:42;39.90;;;27.23;;
4575;SDS011;2300;51.874;8.430;2023-02-15T03:45:11;38.23;;;27.17;;
4575;SDS011;2300;51.874;8.430;2023-02-15T03:47:44;37.33;;;26.77;;
4575;SDS011;2300;51.874;8.430;2023-02-15T03:50:15;40.67;;;27.33;;
4575;SDS011;2300;51.874;8.430;2023-02-15T03:53:03;37.30;;;25.53;;
4575;SDS011;2300;51.874;8.430;2023-02-15T03:55:33;39.97;;;27.10;;
4575;SDS011;2300;51.874;8.430;2023-02-15T03:58:00;36.63;;;26.03;;
4575;SDS011;2300;51.874;8.430;2023-02-15T04:00:45;38.43;;;27.27;;
4575;SDS011;2300;51.874;8.430;2023-02-15T04:03:39;38.40;;;26.47;;
4575;SDS011;2300;51.874;8.430;2023-02-15T04:06:10;38.53;;;25.53;;
4575;SDS011;2300;51.874;8.430;2023-02-15T04:08:37;40.73;;;28.40;;
4575;SDS011;2300;51.874;8.430;2023-02-15T04:11:21;41.00;;;26.63;;
4575;SDS011;2300;51.874;8.430;2023-02-15T04:13:47;35.97;;;26.23;;
4575;SDS011;2300;51.874;8.430;2023-02-15T04:16:24;40.90;;;28.23;;
4575;SDS011;2300;51.874;8.430;2023-02-15T04:18:53;42.83;;;29.63;;
4575;SDS011;2300;51.874;8.430;2023-02-15T04:21:39;41.57;;;29.10;;
4575;SDS011;2300;51.874;8.430;2023-02-15T04:24:22;38.73;;;26.50;;
4575;SDS011;2300;51.874;8.430;2023-02-15T04:27:06;47.93;;;33.33;;
4575;SDS011;2300;51.874;8.430;2023-02-15T04:29:33;48.37;;;39.03;;
4575;SDS011;2300;51.874;8.430;2023-02-15T04:31:59;46.53;;;39.53;;
4575;SDS011;2300;51.874;8.430;2023-02-15T04:34:27;46.53;;;38.73;;
4575;SDS011;2300;51.874;8.430;2023-02-15T04:36:54;43.43;;;36.07;;
4575;SDS011;2300;51.874;8.430;2023-02-15T04:39:21;42.43;;;33.60;;
4575;SDS011;2300;51.874;8.430;2023-02-15T04:41:47;45.50;;;33.73;;
4575;SDS011;2300;51.874;8.430;2023-02-15T04:44:14;45.47;;;33.33;;
4575;SDS011;2300;51.874;8.430;2023-02-15T04:46:40;44.10;;;31.40;;
4575;SDS011;2300;51.874;8.430;2023-02-15T04:49:07;46.10;;;37.87;;
4575;SDS011;2300;51.874;8.430;2023-02-15T04:51:34;47.73;;;38.77;;
4575;SDS011;2300;51.874;8.430;2023-02-15T04:54:02;44.30;;;32.03;;
4575;SDS011;2300;51.874;8.430;2023-02-15T04:56:28;41.83;;;30.70;;
4575;SDS011;2300;51.874;8.430;2023-02-15T04:58:56;46.63;;;34.63;;
4575;SDS011;2300;51.874;8.430;2023-02-15T05:01:22;46.87;;;32.70;;
4575;SDS011;2300;51.874;8.430;2023-02-15T05:03:49;49.17;;;36.90;;
4575;SDS011;2300;51.874;8.430;2023-02-15T05:06:15;44.83;;;32.70;;
4575;SDS011;2300;51.874;8.430;2023-02-15T05:08:41;44.33;;;32.60;;
4575;SDS011;2300;51.874;8.430;2023-02-15T05:11:09;46.63;;;32.30;;
4575;SDS011;2300;51.874;8.430;2023-02-15T05:13:36;46.13;;;35.67;;
4575;SDS011;2300;51.874;8.430;2023-02-15T05:16:02;48.03;;;36.23;;
4575;SDS011;2300;51.874;8.430;2023-02-15T05:18:29;49.50;;;36.00;;
4575;SDS011;2300;51.874;8.430;2023-02-15T05:20:55;52.93;;;39.73;;
4575;SDS011;2300;51.874;8.430;2023-02-15T05:23:22;50.00;;;36.03;;
4575;SDS011;2300;51.874;8.430;2023-02-15T05:25:48;50.40;;;36.47;;
4575;SDS011;2300;51.874;8.430;2023-02-15T05:28:35;57.90;;;38.80;;
4575;SDS011;2300;51.874;8.430;2023-02-15T05:31:03;56.67;;;38.10;;
4575;SDS011;2300;51.874;8.430;2023-02-15T05:33:32;50.87;;;36.67;;
4575;SDS011;2300;51.874;8.430;2023-02-15T05:35:58;58.73;;;37.60;;
4575;SDS011;2300;51.874;8.430;2023-02-15T05:38:25;54.07;;;34.77;;
4575;SDS011;2300;51.874;8.430;2023-02-15T05:40:52;54.97;;;40.93;;
4575;SDS011;2300;51.874;8.430;2023-02-15T05:43:18;58.00;;;41.67;;
4575;SDS011;2300;51.874;8.430;2023-02-15T05:45:46;55.87;;;43.30;;
4575;SDS011;2300;51.874;8.430;2023-02-15T05:48:13;57.83;;;43.97;;
4575;SDS011;2300;51.874;8.430;2023-02-15T05:50:40;60.60;;;44.50;;
4575;SDS011;2300;51.874;8.430;2023-02-15T05:53:06;55.57;;;47.20;;
4575;SDS011;2300;51.874;8.430;2023-02-15T05:55:33;54.27;;;46.67;;
4575;SDS011;2300;51.874;8.430;2023-02-15T05:57:59;58.40;;;46.40;;
4575;SDS011;2300;51.874;8.430;2023-02-15T06:00:26;55.67;;;46.07;;
4575;SDS011;2300;51.874;8.430;2023-02-15T06:02:53;55.97;;;49.50;;
4575;SDS011;2300;51.874;8.430;2023-02-15T06:05:20;54.80;;;45.50;;
4575;SDS011;2300;51.874;8.430;2023-02-15T06:07:46;54.27;;;42.77;;
4575;SDS011;2300;51.874;8.430;2023-02-15T06:10:13;56.43;;;46.63;;
4575;SDS011;2300;51.874;8.430;2023-02-15T06:12:40;56.83;;;50.70;;
4575;SDS011;2300;51.874;8.430;2023-02-15T06:15:06;57.87;;;51.03;;
4575;SDS011;2300;51.874;8.430;2023-02-15T06:17:33;59.70;;;50.80;;
4575;SDS011;2300;51.874;8.430;2023-02-15T06:20:01;56.50;;;50.33;;
4575;SDS011;2300;51.874;8.430;2023-02-15T06:22:28;62.73;;;51.47;;
4575;SDS011;2300;51.874;8.430;2023-02-15T06:24:55;63.23;;;54.60;;
4575;SDS011;2300;51.874;8.430;2023-02-15T06:27:21;63.30;;;54.97;;
4575;SDS011;2300;51.874;8.430;2023-02-15T06:29:48;64.40;;;51.10;;
4575;SDS011;2300;51.874;8.430;2023-02-15T06:32:14;64.67;;;50.13;;
4575;SDS011;2300;51.874;8.430;2023-02-15T06:34:41;65.20;;;53.07;;
4575;SDS011;2300;51.874;8.430;2023-02-15T06:37:08;61.03;;;39.27;;
4575;SDS011;2300;51.874;8.430;2023-02-15T06:39:35;62.17;;;36.17;;
4575;SDS011;2300;51.874;8.430;2023-02-15T06:42:01;59.90;;;37.67;;
4575;SDS011;2300;51.874;8.430;2023-02-15T06:44:28;65.93;;;42.63;;
4575;SDS011;2300;51.874;8.430;2023-02-15T06:46:54;63.30;;;40.70;;
4575;SDS011;2300;51.874;8.430;2023-02-15T06:49:21;65.13;;;39.77;;
4575;SDS011;2300;51.874;8.430;2023-02-15T06:51:47;64.27;;;38.93;;
4575;SDS011;2300;51.874;8.430;2023-02-15T06:54:15;60.40;;;34.17;;
4575;SDS011;2300;51.874;8.430;2023-02-15T06:56:41;55.87;;;29.87;;
4575;SDS011;2300;51.874;8.430;2023-02-15T06:59:08;52.00;;;27.87;;
4575;SDS011;2300;51.874;8.430;2023-02-15T07:01:35;53.70;;;28.27;;
4575;SDS011;2300;51.874;8.430;2023-02-15T07:04:03;49.10;;;27.10;;
4575;SDS011;2300;51.874;8.430;2023-02-15T07:06:30;55.43;;;28.50;;
4575;SDS011;2300;51.874;8.430;2023-02-15T07:08:57;51.30;;;27.80;;
4575;SDS011;2300;51.874;8.430;2023-02-15T07:11:26;54.37;;;28.80;;
4575;SDS011;2300;51.874;8.430;2023-02-15T07:14:10;51.90;;;28.47;;
4575;SDS011;2300;51.874;8.430;2023-02-15T07:16:36;52.23;;;27.00;;
4575;SDS011;2300;51.874;8.430;2023-02-15T07:19:03;52.63;;;26.77;;
4575;SDS011;2300;51.874;8.430;2023-02-15T07:21:29;49.63;;;27.10;;
4575;SDS011;2300;51.874;8.430;2023-02-15T07:23:56;54.13;;;26.93;;
4575;SDS011;2300;51.874;8.430;2023-02-15T07:26:24;53.53;;;29.57;;
4575;SDS011;2300;51.874;8.430;2023-02-15T07:28:51;51.37;;;30.77;;
4575;SDS011;2300;51.874;8.430;2023-02-15T07:31:18;54.63;;;32.27;;
4575;SDS011;2300;51.874;8.430;2023-02-15T07:33:44;53.23;;;29.70;;
4575;SDS011;2300;51.874;8.430;2023-02-15T07:36:11;51.57;;;28.70;;
4575;SDS011;2300;51.874;8.430;2023-02-15T07:38:38;44.73;;;25.80;;
4575;SDS011;2300;51.874;8.430;2023-02-15T07:41:06;49.13;;;26.00;;
4575;SDS011;2300;51.874;8.430;2023-02-15T07:43:38;47.43;;;25.10;;
4575;SDS011;2300;51.874;8.430;2023-02-15T07:46:06;43.80;;;24.90;;
4575;SDS011;2300;51.874;8.430;2023-02-15T07:48:36;42.00;;;24.43;;
4575;SDS011;2300;51.874;8.430;2023-02-15T07:51:04;43.57;;;24.43;;
4575;SDS011;2300;51.874;8.430;2023-02-15T07:53:32;43.27;;;23.53;;
4575;SDS011;2300;51.874;8.430;2023-02-15T07:55:59;38.47;;;23.23;;
4575;SDS011;2300;51.874;8.430;2023-02-15T07:58:26;37.87;;;22.60;;
4575;SDS011;2300;51.874;8.430;2023-02-15T08:01:08;39.73;;;22.40;;
4575;SDS011;2300;51.874;8.430;2023-02-15T08:03:35;38.77;;;22.07;;
4575;SDS011;2300;51.874;8.430;2023-02-15T08:06:01;34.83;;;20.70;;
4575;SDS011;2300;51.874;8.430;2023-02-15T08:08:27;41.60;;;21.77;;
4575;SDS011;2300;51.874;8.430;2023-02-15T08:10:57;34.40;;;21.40;;
4575;SDS011;2300;51.874;8.430;2023-02-15T08:13:43;32.50;;;20.80;;
4575;SDS011;2300;51.874;8.430;2023-02-15T08:16:19;33.33;;;19.17;;
4575;SDS011;2300;51.874;8.430;2023-02-15T08:18:47;34.53;;;22.00;;
4575;SDS011;2300;51.874;8.430;2023-02-15T08:21:14;32.67;;;20.63;;
4575;SDS011;2300;51.874;8.430;2023-02-15T08:23:40;37.33;;;21.30;;
4575;SDS011;2300;51.874;8.430;2023-02-15T08:26:07;35.00;;;20.63;;
4575;SDS011;2300;51.874;8.430;2023-02-15T08:28:33;34.07;;;20.77;;
4575;SDS011;2300;51.874;8.430;2023-02-15T08:31:03;28.07;;;19.57;;
4575;SDS011;2300;51.874;8.430;2023-02-15T08:33:32;31.97;;;19.20;;
4575;SDS011;2300;51.874;8.430;2023-02-15T08:36:01;29.27;;;19.37;;
4575;SDS011;2300;51.874;8.430;2023-02-15T08:38:29;27.57;;;18.67;;
4575;SDS011;2300;51.874;8.430;2023-02-15T08:40:55;29.03;;;18.97;;
4575;SDS011;2300;51.874;8.430;2023-02-15T08:43:21;30.90;;;18.57;;
4575;SDS011;2300;51.874;8.430;2023-02-15T08:45:48;30.27;;;19.40;;
4575;SDS011;2300;51.874;8.430;2023-02-15T08:48:14;25.63;;;16.63;;
4575;SDS011;2300;51.874;8.430;2023-02-15T08:50:42;28.33;;;18.30;;
4575;SDS011;2300;51.874;8.430;2023-02-15T08:53:08;25.10;;;17.30;;
4575;SDS011;2300;51.874;8.430;2023-02-15T08:55:35;29.47;;;18.40;;
4575;SDS011;2300;51.874;8.430;2023-02-15T08:58:01;29.53;;;18.63;;
4575;SDS011;2300;51.874;8.430;2023-02-15T09:00:29;28.30;;;17.87;;
4575;SDS011;2300;51.874;8.430;2023-02-15T09:02:56;25.40;;;18.20;;
4575;SDS011;2300;51.874;8.430;2023-02-15T09:05:22;25.63;;;18.37;;
4575;SDS011;2300;51.874;8.430;2023-02-15T09:07:50;28.33;;;18.73;;
4575;SDS011;2300;51.874;8.430;2023-02-15T09:10:17;29.60;;;19.33;;
4575;SDS011;2300;51.874;8.430;2023-02-15T09:12:43;26.33;;;18.00;;
4575;SDS011;2300;51.874;8.430;2023-02-15T09:15:10;25.17;;;18.13;;
4575;SDS011;2300;51.874;8.430;2023-02-15T09:17:36;24.40;;;17.33;;
4575;SDS011;2300;51.874;8.430;2023-02-15T09:20:03;25.03;;;18.33;;
4575;SDS011;2300;51.874;8.430;2023-02-15T09:22:30;24.80;;;17.70;;
4575;SDS011;2300;51.874;8.430;2023-02-15T09:24:58;25.23;;;17.70;;
4575;SDS011;2300;51.874;8.430;2023-02-15T09:27:24;23.97;;;17.50;;
4575;SDS011;2300;51.874;8.430;2023-02-15T09:29:51;24.73;;;18.40;;
4575;SDS011;2300;51.874;8.430;2023-02-15T09:32:17;23.50;;;18.10;;
4575;SDS011;2300;51.874;8.430;2023-02-15T09:34:44;25.47;;;17.80;;
4575;SDS011;2300;51.874;8.430;2023-02-15T09:37:10;24.27;;;17.83;;
4575;SDS011;2300;51.874;8.430;2023-02-15T09:39:37;22.90;;;18.97;;
4575;SDS011;2300;51.874;8.430;2023-02-15T09:42:20;24.07;;;20.37;;
4575;SDS011;2300;51.874;8.430;2023-02-15T09:45:04;21.33;;;19.03;;
4575;SDS011;2300;51.874;8.430;2023-02-15T09:47:44;24.67;;;22.03;;
4575;SDS011;2300;51.874;8.430;2023-02-15T09:50:25;24.87;;;20.00;;
4575;SDS011;2300;51.874;8.430;2023-02-15T09:53:03;23.80;;;21.30;;
4575;SDS011;2300;51.874;8.430;2023-02-15T09:55:48;23.00;;;19.20;;
4575;SDS011;2300;51.874;8.430;2023-02-15T09:58:25;22.93;;;17.97;;
4575;SDS011;2300;51.874;8.430;2023-02-15T10:01:02;21.20;;;16.87;;
4575;SDS011;2300;51.874;8.430;2023-02-15T10:03:41;24.73;;;18.87;;
4575;SDS011;2300;51.874;8.430;2023-02-15T10:06:19;25.47;;;19.77;;
4575;SDS011;2300;51.874;8.430;2023-02-15T10:09:07;22.93;;;19.90;;
4575;SDS011;2300;51.874;8.430;2023-02-15T10:11:47;24.07;;;19.47;;
4575;SDS011;2300;51.874;8.430;2023-02-15T10:14:34;23.67;;;19.77;;
4575;SDS011;2300;51.874;8.430;2023-02-15T10:17:24;21.93;;;19.07;;
4575;SDS011;2300;51.874;8.430;2023-02-15T10:20:05;23.37;;;18.97;;
4575;SDS011;2300;51.874;8.430;2023-02-15T10:22:46;21.20;;;18.97;;
4575;SDS011;2300;51.874;8.430;2023-02-15T10:25:28;24.30;;;19.03;;
4575;SDS011;2300;51.874;8.430;2023-02-15T10:28:04;24.17;;;20.80;;
4575;SDS011;2300;51.874;8.430;2023-02-15T10:30:35;23.17;;;19.70;;
4575;SDS011;2300;51.874;8.430;2023-02-15T10:33:09;21.63;;;19.33;;
4575;SDS011;2300;51.874;8.430;2023-02-15T10:35:47;25.77;;;21.53;;
4575;SDS011;2300;51.874;8.430;2023-02-15T10:38:24;22.70;;;20.27;;
4575;SDS011;2300;51.874;8.430;2023-02-15T10:41:03;22.83;;;20.33;;
4575;SDS011;2300;51.874;8.430;2023-02-15T10:43:41;24.40;;;19.67;;
4575;SDS011;2300;51.874;8.430;2023-02-15T10:46:25;22.33;;;19.63;;
4575;SDS011;2300;51.874;8.430;2023-02-15T10:49:07;22.27;;;18.23;;
4575;SDS011;2300;51.874;8.430;2023-02-15T10:51:49;22.00;;;17.57;;
4575;SDS011;2300;51.874;8.430;2023-02-15T10:54:28;25.63;;;20.30;;
4575;SDS011;2300;51.874;8.430;2023-02-15T10:57:02;45.60;;;41.80;;
4575;SDS011;2300;51.874;8.430;2023-02-15T10:59:42;23.03;;;20.60;;
4575;SDS011;2300;51.874;8.430;2023-02-15T11:02:26;21.93;;;19.53;;
4575;SDS011;2300;51.874;8.430;2023-02-15T11:05:08;22.60;;;20.10;;
4575;SDS011;2300;51.874;8.430;2023-02-15T11:07:46;22.10;;;19.70;;
4575;SDS011;2300;51.874;8.430;2023-02-15T11:10:19;22.70;;;20.27;;
4575;SDS011;2300;51.874;8.430;2023-02-15T11:12:52;22.63;;;19.53;;
4575;SDS011;2300;51.874;8.430;2023-02-15T11:15:24;26.27;;;22.50;;
4575;SDS011;2300;51.874;8.430;2023-02-15T11:17:58;24.70;;;21.33;;
4575;SDS011;2300;51.874;8.430;2023-02-15T11:20:28;26.07;;;19.70;;
4575;SDS011;2300;51.874;8.430;2023-02-15T11:22:58;22.97;;;14.80;;
4575;SDS011;2300;51.874;8.430;2023-02-15T11:25:28;21.33;;;14.97;;
4575;SDS011;2300;51.874;8.430;2023-02-15T11:27:57;24.23;;;16.43;;
4575;SDS011;2300;51.874;8.430;2023-02-15T11:30:26;21.63;;;15.60;;
4575;SDS011;2300;51.874;8.430;2023-02-15T11:33:03;22.40;;;15.50;;
4575;SDS011;2300;51.874;8.430;2023-02-15T11:35:32;25.97;;;17.03;;
4575;SDS011;2300;51.874;8.430;2023-02-15T11:38:04;22.27;;;15.80;;
4575;SDS011;2300;51.874;8.430;2023-02-15T11:40:40;23.13;;;16.27;;
4575;SDS011;2300;51.874;8.430;2023-02-15T11:43:11;25.07;;;18.80;;
4575;SDS011;2300;51.874;8.430;2023-02-15T11:45:42;24.07;;;18.10;;
4575;SDS011;2300;51.874;8.430;2023-02-15T11:48:12;27.87;;;19.80;;
4575;SDS011;2300;51.874;8.430;2023-02-15T11:50:40;25.27;;;17.17;;
4575;SDS011;2300;51.874;8.430;2023-02-15T11:53:09;29.47;;;18.93;;
4575;SDS011;2300;51.874;8.430;2023-02-15T11:55:39;26.23;;;18.37;;
4575;SDS011;2300;51.874;8.430;2023-02-15T11:58:09;32.03;;;20.37;;
4575;SDS011;2300;51.874;8.430;2023-02-15T12:00:45;28.67;;;19.50;;
4575;SDS011;2300;51.874;8.430;2023-02-15T12:03:16;33.33;;;20.67;;
4575;SDS011;2300;51.874;8.430;2023-02-15T12:05:49;31.10;;;20.67;;
4575;SDS011;2300;51.874;8.430;2023-02-15T12:08:20;32.10;;;21.00;;
4575;SDS011;2300;51.874;8.430;2023-02-15T12:10:56;32.97;;;22.77;;
4575;SDS011;2300;51.874;8.430;2023-02-15T12:13:26;32.37;;;21.87;;
4575;SDS011;2300;51.874;8.430;2023-02-15T12:15:53;36.50;;;23.23;;
4575;SDS011;2300;51.874;8.430;2023-02-15T12:18:33;37.63;;;26.60;;
4575;SDS011;2300;51.874;8.430;2023-02-15T12:21:03;41.87;;;36.73;;
4575;SDS011;2300;51.874;8.430;2023-02-15T12:23:33;45.53;;;38.30;;
4575;SDS011;2300;51.874;8.430;2023-02-15T12:26:05;31.97;;;23.30;;
4575;SDS011;2300;51.874;8.430;2023-02-15T12:28:32;34.57;;;23.50;;
4575;SDS011;2300;51.874;8.430;2023-02-15T12:31:02;33.63;;;23.13;;
4575;SDS011;2300;51.874;8.430;2023-02-15T12:33:34;32.07;;;20.57;;
4575;SDS011;2300;51.874;8.430;2023-02-15T12:36:09;31.93;;;21.37;;
4575;SDS011;2300;51.874;8.430;2023-02-15T12:38:38;31.60;;;21.47;;
4575;SDS011;2300;51.874;8.430;2023-02-15T12:41:10;29.73;;;20.83;;
4575;SDS011;2300;51.874;8.430;2023-02-15T12:43:53;31.50;;;20.63;;
4575;SDS011;2300;51.874;8.430;2023-02-15T12:46:30;33.57;;;21.50;;
4575;SDS011;2300;51.874;8.430;2023-02-15T12:49:16;36.80;;;21.93;;
4575;SDS011;2300;51.874;8.430;2023-02-15T12:51:44;35.70;;;22.77;;
4575;SDS011;2300;51.874;8.430;2023-02-15T12:57:13;35.00;;;24.23;;
4575;SDS011;2300;51.874;8.430;2023-02-15T12:59:49;31.33;;;22.53;;
4575;SDS011;2300;51.874;8.430;2023-02-15T13:02:19;34.80;;;23.73;;
4575;SDS011;2300;51.874;8.430;2023-02-15T13:04:50;37.60;;;23.93;;
4575;SDS011;2300;51.874;8.430;2023-02-15T13:07:18;35.10;;;23.05;;
4575;SDS011;2300;51.874;8.430;2023-02-15T13:09:45;36.83;;;23.53;;
4575;SDS011;2300;51.874;8.430;2023-02-15T13:12:17;37.90;;;24.67;;
4575;SDS011;2300;51.874;8.430;2023-02-15T13:14:46;39.47;;;25.77;;
4575;SDS011;2300;51.874;8.430;2023-02-15T13:17:16;36.83;;;23.87;;
4575;SDS011;2300;51.874;8.430;2023-02-15T13:19:46;39.77;;;24.67;;
4575;SDS011;2300;51.874;8.430;2023-02-15T13:22:18;44.63;;;25.17;;
4575;SDS011;2300;51.874;8.430;2023-02-15T13:24:48;34.10;;;24.00;;
4575;SDS011;2300;51.874;8.430;2023-02-15T13:27:20;38.25;;;27.13;;
4575;SDS011;2300;51.874;8.430;2023-02-15T13:29:49;35.53;;;23.95;;
4575;SDS011;2300;51.874;8.430;2023-02-15T13:32:24;44.60;;;32.17;;
4575;SDS011;2300;51.874;8.430;2023-02-15T13:34:54;44.05;;;24.30;;
4575;SDS011;2300;51.874;8.430;2023-02-15T13:37:29;37.30;;;23.55;;
4575;SDS011;2300;51.874;8.430;2023-02-15T13:40:03;31.65;;;22.10;;
4575;SDS011;2300;51.874;8.430;2023-02-15T13:42:35;33.30;;;22.65;;
4575;SDS011;2300;51.874;8.430;2023-02-15T13:45:09;34.90;;;24.73;;
4575;SDS011;2300;51.874;8.430;2023-02-15T13:47:50;37.00;;;23.02;;
4575;SDS011;2300;51.874;8.430;2023-02-15T13:50:29;32.47;;;21.40;;
4575;SDS011;2300;51.874;8.430;2023-02-15T13:53:16;33.30;;;22.20;;
4575;SDS011;2300;51.874;8.430;2023-02-15T13:55:52;31.58;;;22.45;;
4575;SDS011;2300;51.874;8.430;2023-02-15T13:58:29;33.03;;;22.48;;
4575;SDS011;2300;51.874;8.430;2023-02-15T14:01:13;40.65;;;26.73;;
4575;SDS011;2300;51.874;8.430;2023-02-15T14:04:09;36.45;;;24.67;;
4575;SDS011;2300;51.874;8.430;2023-02-15T14:09:51;32.77;;;22.90;;
4575;SDS011;2300;51.874;8.430;2023-02-15T14:12:29;34.90;;;22.50;;
4575;SDS011;2300;51.874;8.430;2023-02-15T14:18:00;34.27;;;22.63;;
4575;SDS011;2300;51.874;8.430;2023-02-15T14:20:44;31.90;;;22.03;;
4575;SDS011;2300;51.874;8.430;2023-02-15T14:23:21;32.45;;;21.98;;
4575;SDS011;2300;51.874;8.430;2023-02-15T14:26:03;32.30;;;22.52;;
4575;SDS011;2300;51.874;8.430;2023-02-15T14:28:37;32.50;;;21.30;;
4575;SDS011;2300;51.874;8.430;2023-02-15T14:31:10;29.58;;;20.77;;
4575;SDS011;2300;51.874;8.430;2023-02-15T14:33:40;31.45;;;21.50;;
4575;SDS011;2300;51.874;8.430;2023-02-15T14:36:10;29.75;;;21.85;;
4575;SDS011;2300;51.874;8.430;2023-02-15T14:38:48;33.88;;;28.33;;
4575;SDS011;2300;51.874;8.430;2023-02-15T14:41:25;31.57;;;21.27;;
4575;SDS011;2300;51.874;8.430;2023-02-15T14:43:59;28.00;;;19.23;;
4575;SDS011;2300;51.874;8.430;2023-02-15T14:46:34;31.13;;;20.55;;
4575;SDS011;2300;51.874;8.430;2023-02-15T14:49:05;31.17;;;19.63;;
4575;SDS011;2300;51.874;8.430;2023-02-15T14:51:55;31.90;;;20.30;;
4575;SDS011;2300;51.874;8.430;2023-02-15T14:57:26;29.02;;;20.42;;
4575;SDS011;2300;51.874;8.430;2023-02-15T14:59:56;28.73;;;19.98;;
4575;SDS011;2300;51.874;8.430;2023-02-15T15:02:25;31.07;;;20.17;;
4575;SDS011;2300;51.874;8.430;2023-02-15T15:04:59;28.80;;;20.07;;
4575;SDS011;2300;51.874;8.430;2023-02-15T15:07:36;28.87;;;18.57;;
4575;SDS011;2300;51.874;8.430;2023-02-15T15:10:32;30.50;;;19.43;;
4575;SDS011;2300;51.874;8.430;2023-02-15T15:16:45;31.63;;;19.00;;
4575;SDS011;2300;51.874;8.430;2023-02-15T15:22:29;29.23;;;18.33;;
4575;SDS011;2300;51.874;8.430;2023-02-15T15:24:57;27.60;;;18.17;;
4575;SDS011;2300;51.874;8.430;2023-02-15T15:33:33;28.63;;;17.80;;
4575;SDS011;2300;51.874;8.430;2023-02-15T15:36:30;27.73;;;18.23;;
4575;SDS011;2300;51.874;8.430;2023-02-15T15:39:21;29.07;;;17.73;;
4575;SDS011;2300;51.874;8.430;2023-02-15T15:42:01;26.97;;;17.53;;